createdAt,value
2023-01-19T00:00:30.306Z,0.53
2023-01-19T00:02:56.739Z,0.47
2023-01-19T00:05:23.091Z,0.52
2023-01-19T00:07:49.419Z,0.51
2023-01-19T00:10:16.209Z,0.54
2023-01-19T00:12:42.607Z,0.64
2023-01-19T00:15:09.493Z,0.66
2023-01-19T00:17:35.914Z,0.67
2023-01-19T00:20:03.763Z,0.78
2023-01-19T00:22:30.101Z,0.73
2023-01-19T00:24:56.485Z,0.84
2023-01-19T00:27:22.810Z,0.52
2023-01-19T00:29:49.342Z,0.11
2023-01-19T00:32:17.700Z,-0.09
2023-01-19T00:34:49.320Z,0.17
2023-01-19T00:37:17.165Z,0.27
2023-01-19T00:39:43.781Z,0.46
2023-01-19T00:42:31.680Z,0.65
2023-01-19T00:44:58.193Z,0.88
2023-01-19T00:47:24.520Z,0.75
2023-01-19T00:49:50.844Z,0.86
2023-01-19T00:52:17.182Z,1.14
2023-01-19T00:54:43.550Z,0.91
2023-01-19T00:57:09.890Z,0.73
2023-01-19T00:59:36.226Z,0.65
2023-01-19T01:02:02.914Z,0.54
2023-01-19T01:04:29.888Z,0.69
2023-01-19T01:06:56.217Z,0.67
2023-01-19T01:09:23.453Z,0.63
2023-01-19T01:11:49.826Z,0.76
2023-01-19T01:14:18.004Z,1.07
2023-01-19T01:16:44.619Z,1.17
2023-01-19T01:19:11.135Z,1.20
2023-01-19T01:21:37.481Z,1.06
2023-01-19T01:24:04.231Z,1.26
2023-01-19T01:26:30.553Z,1.26
2023-01-19T01:28:56.900Z,1.03
2023-01-19T01:31:23.247Z,1.34
2023-01-19T01:33:49.767Z,1.19
2023-01-19T01:36:16.571Z,1.06
2023-01-19T01:38:43.140Z,1.20
2023-01-19T01:41:09.661Z,1.47
2023-01-19T01:44:06.177Z,1.48
2023-01-19T01:46:32.716Z,1.43
2023-01-19T01:49:16.051Z,1.70
2023-01-19T01:51:47.156Z,1.45
2023-01-19T01:54:27.901Z,1.20
2023-01-19T01:56:59.508Z,1.41
2023-01-19T01:59:38.970Z,1.01
2023-01-19T02:02:28.678Z,0.78
2023-01-19T02:05:04.193Z,0.61
2023-01-19T02:07:59.656Z,0.97
2023-01-19T02:10:44.964Z,0.57
2023-01-19T02:13:21.328Z,0.58
2023-01-19T02:15:50.107Z,0.60
2023-01-19T02:18:17.103Z,0.44
2023-01-19T02:20:52.136Z,0.39
2023-01-19T02:23:42.652Z,0.47
2023-01-19T02:26:13.047Z,0.41
2023-01-19T02:28:44.551Z,0.26
2023-01-19T02:31:11.418Z,0.11
2023-01-19T02:33:37.890Z,-0.03
2023-01-19T02:36:05.935Z,-0.05
2023-01-19T02:38:32.937Z,-0.20
2023-01-19T02:41:02.966Z,-0.34
2023-01-19T02:43:30.390Z,-0.29
2023-01-19T02:45:57.278Z,-0.44
2023-01-19T02:48:23.643Z,-0.42
2023-01-19T02:50:53.595Z,-0.32
2023-01-19T02:53:57.247Z,-0.20
2023-01-19T02:56:54.886Z,-0.29
2023-01-19T02:59:23.871Z,-0.56
2023-01-19T03:02:08.861Z,-0.58
2023-01-19T03:04:45.696Z,-0.59
2023-01-19T03:07:24.629Z,-0.59
2023-01-19T03:10:08.080Z,-0.60
2023-01-19T03:12:50.463Z,-0.50
2023-01-19T03:15:25.848Z,-0.52
2023-01-19T03:17:53.819Z,-0.57
2023-01-19T03:20:24.610Z,-0.54
2023-01-19T03:23:00.497Z,-0.54
2023-01-19T03:25:31.043Z,-0.57
2023-01-19T03:27:57.915Z,-0.54
2023-01-19T03:30:29.219Z,-0.64
2023-01-19T03:33:05.034Z,-0.65
2023-01-19T03:35:35.534Z,-0.58
2023-01-19T03:38:06.063Z,-0.66
2023-01-19T03:40:34.227Z,-0.66
2023-01-19T03:43:02.518Z,-0.66
2023-01-19T03:45:33.344Z,-0.71
2023-01-19T03:47:59.838Z,-0.65
2023-01-19T03:50:29.516Z,-0.65
2023-01-19T03:53:15.959Z,-0.35
2023-01-19T03:55:46.443Z,-0.28
2023-01-19T03:58:13.200Z,-0.26
2023-01-19T04:00:39.882Z,-0.36
2023-01-19T04:03:11.772Z,-0.04
2023-01-19T04:05:39.399Z,-0.18
2023-01-19T04:08:08.556Z,0.17
2023-01-19T04:10:34.884Z,0.35
2023-01-19T04:13:02.213Z,0.36
2023-01-19T04:15:29.613Z,0.28
2023-01-19T04:18:01.748Z,0.09
2023-01-19T04:20:29.126Z,0.15
2023-01-19T04:22:59.518Z,-0.03
2023-01-19T04:25:26.427Z,0.03
2023-01-19T04:27:53.292Z,0.16
2023-01-19T04:30:19.906Z,-0.12
2023-01-19T04:32:46.770Z,-0.28
2023-01-19T04:35:13.147Z,-0.36
2023-01-19T04:37:40.017Z,-0.59
2023-01-19T04:40:07.160Z,-0.58
2023-01-19T04:42:33.472Z,-0.87
2023-01-19T04:44:59.789Z,-0.94
2023-01-19T04:47:26.167Z,-1.00
2023-01-19T04:49:52.529Z,-1.03
2023-01-19T04:52:19.379Z,-0.93
2023-01-19T04:54:45.714Z,-0.86
2023-01-19T04:57:12.070Z,-0.65
2023-01-19T04:59:38.401Z,-0.66
2023-01-19T05:02:04.771Z,-0.69
2023-01-19T05:04:31.103Z,-0.73
2023-01-19T05:06:58.218Z,-0.63
2023-01-19T05:09:25.779Z,-0.70
2023-01-19T05:11:52.137Z,-0.70
2023-01-19T05:14:18.783Z,-0.69
2023-01-19T05:16:45.153Z,-0.62
2023-01-19T05:19:11.523Z,-0.65
2023-01-19T05:21:37.939Z,-0.65
2023-01-19T05:24:04.368Z,-0.71
2023-01-19T05:26:30.713Z,-0.75
2023-01-19T05:28:57.187Z,-0.92
2023-01-19T05:31:23.616Z,-0.99
2023-01-19T05:33:50.064Z,-0.72
2023-01-19T05:36:16.435Z,-0.80
2023-01-19T05:38:42.763Z,-0.83
2023-01-19T05:41:09.100Z,-0.79
2023-01-19T05:43:35.411Z,-0.69
2023-01-19T05:46:04.586Z,-0.60
2023-01-19T05:48:31.594Z,-0.70
2023-01-19T05:50:59.488Z,-0.87
2023-01-19T05:53:26.149Z,-0.71
2023-01-19T05:55:52.509Z,-0.64
2023-01-19T05:58:19.071Z,-0.91
2023-01-19T06:00:45.464Z,-1.07
2023-01-19T06:03:12.437Z,-1.07
2023-01-19T06:05:39.395Z,-1.01
2023-01-19T06:08:05.981Z,-1.04
2023-01-19T06:10:32.339Z,-0.99
2023-01-19T06:12:59.395Z,-1.04
2023-01-19T06:15:25.965Z,-0.84
2023-01-19T06:17:52.306Z,-1.00
2023-01-19T06:20:18.656Z,-0.92
2023-01-19T06:22:44.989Z,-0.86
2023-01-19T06:25:11.826Z,-1.02
2023-01-19T06:27:39.713Z,-1.05
2023-01-19T06:30:06.758Z,-0.75
2023-01-19T06:32:33.096Z,-0.91
2023-01-19T06:34:59.425Z,-0.73
2023-01-19T06:37:27.167Z,-0.79
2023-01-19T06:39:53.724Z,-0.78
2023-01-19T06:42:20.061Z,-0.91
2023-01-19T06:44:47.894Z,-1.15
2023-01-19T06:47:16.379Z,-0.92
2023-01-19T06:49:43.427Z,-0.64
2023-01-19T06:52:11.367Z,-0.50
2023-01-19T06:54:37.850Z,-0.26
2023-01-19T06:57:04.484Z,-0.10
2023-01-19T06:59:31.660Z,-0.08
2023-01-19T07:01:58.919Z,-0.47
2023-01-19T07:04:26.963Z,-0.45
2023-01-19T07:06:53.428Z,-0.93
2023-01-19T07:09:20.445Z,-1.17
2023-01-19T07:11:48.065Z,-1.21
2023-01-19T07:14:15.395Z,-1.43
2023-01-19T07:16:41.827Z,-1.43
2023-01-19T07:19:10.550Z,-1.40
2023-01-19T07:21:40.065Z,-1.42
2023-01-19T07:24:06.605Z,-1.40
2023-01-19T07:26:32.998Z,-1.30
2023-01-19T07:28:59.364Z,-1.16
2023-01-19T07:31:25.929Z,-1.16
2023-01-19T07:33:52.391Z,-1.24
2023-01-19T07:36:18.740Z,-1.18
2023-01-19T07:38:45.091Z,-1.00
2023-01-19T07:41:11.923Z,-0.93
2023-01-19T07:43:38.283Z,-0.86
2023-01-19T07:46:06.550Z,-0.87
2023-01-19T07:48:33.159Z,-1.02
2023-01-19T07:51:01.237Z,-1.02
2023-01-19T07:53:27.621Z,-0.88
2023-01-19T07:55:56.343Z,-1.09
2023-01-19T07:58:24.476Z,-1.00
2023-01-19T08:00:50.862Z,-1.19
2023-01-19T08:03:17.744Z,-1.43
2023-01-19T08:05:45.236Z,-1.30
2023-01-19T08:08:12.413Z,-1.21
2023-01-19T08:10:38.733Z,-1.19
2023-01-19T08:13:05.111Z,-1.18
2023-01-19T08:15:31.639Z,-1.29
2023-01-19T08:18:00.470Z,-1.38
2023-01-19T08:20:28.853Z,-1.43
2023-01-19T08:22:59.994Z,-1.36
2023-01-19T08:25:46.966Z,-1.32
2023-01-19T08:28:15.617Z,-1.17
2023-01-19T08:30:44.300Z,-0.95
2023-01-19T08:33:13.962Z,-0.98
2023-01-19T08:35:42.542Z,-1.09
2023-01-19T08:38:10.307Z,-1.16
2023-01-19T08:40:39.059Z,-1.26
2023-01-19T08:43:08.923Z,-1.22
2023-01-19T08:45:37.127Z,-1.30
2023-01-19T08:48:06.120Z,-1.27
2023-01-19T08:50:33.782Z,-1.19
2023-01-19T08:53:02.352Z,-0.94
2023-01-19T08:55:29.948Z,-1.07
2023-01-19T08:57:57.867Z,-1.03
2023-01-19T09:00:27.417Z,-0.88
2023-01-19T09:02:54.692Z,-0.89
2023-01-19T09:05:21.141Z,-0.92
2023-01-19T09:07:48.327Z,-0.86
2023-01-19T09:10:15.684Z,-0.71
2023-01-19T09:12:43.396Z,-0.26
2023-01-19T09:15:10.835Z,-0.05
2023-01-19T09:17:37.370Z,0.13
2023-01-19T09:20:05.812Z,0.39
2023-01-19T09:22:33.334Z,0.36
2023-01-19T09:25:00.229Z,0.40
2023-01-19T09:27:26.553Z,-0.19
2023-01-19T09:29:53.980Z,-0.44
2023-01-19T09:32:21.247Z,-0.52
2023-01-19T09:34:47.870Z,-0.38
2023-01-19T09:37:16.013Z,-0.14
2023-01-19T09:39:42.530Z,-0.15
2023-01-19T09:42:23.316Z,-0.23
2023-01-19T09:44:50.928Z,-0.30
2023-01-19T09:47:23.392Z,-0.12
2023-01-19T09:49:58.257Z,-0.12
2023-01-19T09:52:24.740Z,-0.13
2023-01-19T09:54:56.533Z,-0.28
2023-01-19T09:57:25.009Z,-0.21
2023-01-19T09:59:51.743Z,-0.32
2023-01-19T10:02:20.761Z,-0.35
2023-01-19T10:05:22.588Z,-0.24
2023-01-19T10:07:58.600Z,-0.07
2023-01-19T10:10:27.925Z,-0.03
2023-01-19T10:13:21.821Z,0.01
2023-01-19T10:16:14.266Z,0.24
2023-01-19T10:18:51.404Z,0.56
2023-01-19T10:21:22.549Z,0.37
2023-01-19T10:24:14.278Z,0.44
2023-01-19T10:26:45.339Z,0.69
2023-01-19T10:29:21.012Z,0.63
2023-01-19T10:31:51.674Z,0.68
2023-01-19T10:34:23.491Z,0.55
2023-01-19T10:36:58.934Z,0.24
2023-01-19T10:39:25.463Z,0.38
2023-01-19T10:41:53.413Z,0.58
2023-01-19T10:44:28.889Z,0.69
2023-01-19T10:46:58.330Z,0.66
2023-01-19T10:49:27.650Z,0.82
2023-01-19T10:51:56.033Z,0.58
2023-01-19T10:54:23.944Z,0.59
2023-01-19T10:56:57.017Z,0.62
2023-01-19T10:59:50.920Z,0.88
2023-01-19T11:02:21.119Z,1.01
2023-01-19T11:04:51.113Z,1.31
2023-01-19T11:07:23.729Z,1.28
2023-01-19T11:10:22.354Z,1.13
2023-01-19T11:12:56.987Z,1.20
2023-01-19T11:15:48.707Z,0.99
2023-01-19T11:18:29.809Z,1.10
2023-01-19T11:20:59.369Z,1.35
2023-01-19T11:23:28.866Z,1.38
2023-01-19T11:26:00.354Z,1.47
2023-01-19T11:28:40.340Z,1.72
2023-01-19T11:31:15.976Z,1.69
2023-01-19T11:33:49.776Z,1.60
2023-01-19T11:36:21.019Z,1.68
2023-01-19T11:38:50.538Z,1.75
2023-01-19T11:41:31.681Z,1.50
2023-01-19T11:44:09.230Z,1.66
2023-01-19T11:46:39.597Z,1.52
2023-01-19T11:49:13.762Z,1.52
2023-01-19T11:52:15.150Z,1.37
2023-01-19T11:54:48.215Z,1.57
2023-01-19T11:57:17.072Z,1.84
2023-01-19T11:59:44.415Z,1.85
2023-01-19T12:02:28.507Z,1.99
2023-01-19T12:05:06.212Z,1.93
2023-01-19T12:07:35.176Z,1.83
2023-01-19T12:10:26.259Z,1.83
2023-01-19T12:12:53.395Z,1.81
2023-01-19T12:15:36.498Z,1.53
2023-01-19T12:18:05.387Z,1.72
2023-01-19T12:20:39.052Z,1.92
2023-01-19T12:23:11.168Z,2.16
2023-01-19T12:25:44.234Z,2.24
2023-01-19T12:28:14.596Z,2.52
2023-01-19T12:30:41.553Z,2.90
2023-01-19T12:33:40.451Z,2.51
2023-01-19T12:36:36.220Z,2.66
2023-01-19T12:39:02.473Z,2.90
2023-01-19T12:41:37.618Z,3.21
2023-01-19T12:44:16.291Z,2.86
2023-01-19T12:46:45.946Z,2.87
2023-01-19T12:49:21.032Z,3.17
2023-01-19T12:51:48.993Z,3.42
2023-01-19T12:54:31.436Z,3.16
2023-01-19T12:57:08.208Z,3.58
2023-01-19T12:59:37.224Z,3.05
2023-01-19T13:02:25.456Z,3.19
2023-01-19T13:05:32.504Z,2.83
2023-01-19T13:08:02.418Z,3.04
2023-01-19T13:10:53.643Z,2.86
2023-01-19T13:13:21.319Z,2.97
2023-01-19T13:15:47.818Z,2.97
2023-01-19T13:18:23.026Z,2.99
2023-01-19T13:21:00.212Z,3.21
2023-01-19T13:23:27.425Z,3.18
2023-01-19T13:26:01.396Z,3.02
2023-01-19T13:28:36.413Z,3.17
2023-01-19T13:31:03.711Z,3.49
2023-01-19T13:33:40.864Z,3.45
2023-01-19T13:36:20.809Z,3.50
2023-01-19T13:38:50.827Z,3.09
2023-01-19T13:41:22.345Z,2.96
2023-01-19T13:43:57.268Z,3.43
2023-01-19T13:46:26.279Z,3.73
2023-01-19T13:49:00.055Z,4.35
2023-01-19T13:51:26.843Z,4.00
2023-01-19T13:53:54.744Z,3.64
2023-01-19T13:56:23.269Z,3.30
2023-01-19T13:59:10.105Z,3.85
2023-01-19T14:01:38.389Z,4.25
2023-01-19T14:04:05.279Z,3.66
2023-01-19T14:06:47.647Z,4.14
2023-01-19T14:09:18.944Z,4.25
2023-01-19T14:11:47.485Z,4.11
2023-01-19T14:14:25.989Z,3.78
2023-01-19T14:16:52.740Z,3.77
2023-01-19T14:19:19.419Z,3.97
2023-01-19T14:21:46.000Z,4.31
2023-01-19T14:24:19.544Z,4.73
2023-01-19T14:26:48.320Z,4.56
2023-01-19T14:29:19.678Z,4.55
2023-01-19T14:31:52.767Z,4.11
2023-01-19T14:34:36.116Z,4.83
2023-01-19T14:37:04.886Z,4.68
2023-01-19T14:39:34.236Z,5.12
2023-01-19T14:42:04.040Z,4.93
2023-01-19T14:44:40.875Z,5.47
2023-01-19T14:47:25.158Z,5.02
2023-01-19T14:49:51.612Z,4.49
2023-01-19T14:52:54.031Z,4.42
2023-01-19T14:55:25.370Z,4.86
2023-01-19T14:57:51.696Z,4.17
2023-01-19T15:00:19.937Z,4.20
2023-01-19T15:02:47.286Z,4.54
2023-01-19T15:05:14.423Z,4.01
2023-01-19T15:07:43.500Z,4.05
2023-01-19T15:10:21.122Z,4.47
2023-01-19T15:12:49.002Z,4.09
2023-01-19T15:15:25.643Z,3.80
2023-01-19T15:17:54.187Z,3.27
2023-01-19T15:20:23.005Z,2.83
2023-01-19T15:22:49.919Z,2.51
2023-01-19T15:25:21.037Z,2.23
2023-01-19T15:27:48.443Z,2.21
2023-01-19T15:30:27.704Z,2.47
2023-01-19T15:32:54.025Z,2.53
2023-01-19T15:35:22.963Z,2.49
2023-01-19T15:37:50.397Z,2.50
2023-01-19T15:40:18.284Z,2.55
2023-01-19T15:42:45.240Z,2.39
2023-01-19T15:45:36.187Z,2.44
2023-01-19T15:48:08.088Z,2.57
2023-01-19T15:50:39.519Z,2.52
2023-01-19T15:53:07.123Z,2.37
2023-01-19T15:55:33.468Z,2.33
2023-01-19T15:58:02.494Z,2.21
2023-01-19T16:00:31.598Z,1.99
2023-01-19T16:02:58.905Z,2.00
2023-01-19T16:05:37.430Z,1.81
2023-01-19T16:08:08.638Z,2.16
2023-01-19T16:10:35.254Z,1.89
2023-01-19T16:13:01.595Z,2.10
2023-01-19T16:15:27.959Z,2.17
2023-01-19T16:17:54.282Z,1.84
2023-01-19T16:20:20.600Z,1.89
2023-01-19T16:22:46.946Z,2.02
2023-01-19T16:25:13.308Z,1.95
2023-01-19T16:27:39.678Z,2.04
2023-01-19T16:30:06.699Z,2.00
2023-01-19T16:32:33.779Z,2.15
2023-01-19T16:35:00.118Z,1.95
2023-01-19T16:37:28.044Z,1.91
2023-01-19T16:39:54.510Z,1.92
2023-01-19T16:42:20.938Z,1.90
2023-01-19T16:45:05.388Z,2.20
2023-01-19T16:47:31.732Z,2.60
2023-01-19T16:49:58.036Z,2.41
2023-01-19T16:52:24.382Z,2.01
2023-01-19T16:54:54.487Z,1.74
2023-01-19T16:57:20.816Z,1.76
2023-01-19T16:59:47.256Z,1.74
2023-01-19T17:02:13.732Z,1.73
2023-01-19T17:04:40.088Z,1.61
2023-01-19T17:07:06.423Z,1.69
2023-01-19T17:09:33.919Z,1.74
2023-01-19T17:12:00.266Z,1.81
2023-01-19T17:14:26.728Z,1.72
2023-01-19T17:16:53.053Z,1.95
2023-01-19T17:19:22.127Z,2.17
2023-01-19T17:21:49.885Z,2.25
2023-01-19T17:24:17.015Z,2.27
2023-01-19T17:26:45.791Z,2.69
2023-01-19T17:29:12.214Z,2.90
2023-01-19T17:31:38.829Z,2.81
2023-01-19T17:34:05.634Z,2.92
2023-01-19T17:36:32.851Z,2.68
2023-01-19T17:39:01.008Z,2.83
2023-01-19T17:41:30.596Z,2.45
2023-01-19T17:43:57.987Z,2.61
2023-01-19T17:46:26.649Z,2.91
2023-01-19T17:48:54.561Z,3.19
2023-01-19T17:51:22.918Z,3.21
2023-01-19T17:53:50.244Z,3.34
2023-01-19T17:56:18.772Z,3.45
2023-01-19T17:58:45.127Z,3.54
2023-01-19T18:01:14.934Z,3.59
2023-01-19T18:03:42.283Z,3.64
2023-01-19T18:06:09.312Z,3.72
2023-01-19T18:08:41.952Z,3.78
2023-01-19T18:11:09.417Z,3.78
2023-01-19T18:13:37.208Z,3.76
2023-01-19T18:16:09.701Z,3.76
2023-01-19T18:18:37.128Z,3.80
2023-01-19T18:21:06.657Z,3.46
2023-01-19T18:23:33.479Z,3.33
2023-01-19T18:26:05.907Z,3.37
2023-01-19T18:28:32.599Z,3.45
2023-01-19T18:30:59.739Z,3.50
2023-01-19T18:33:27.529Z,3.58
2023-01-19T18:35:54.452Z,3.57
2023-01-19T18:38:20.899Z,3.58
2023-01-19T18:40:47.245Z,3.53
2023-01-19T18:43:13.675Z,3.61
2023-01-19T18:45:44.271Z,3.55
2023-01-19T18:48:10.590Z,3.53
2023-01-19T18:50:37.607Z,3.47
2023-01-19T18:53:03.942Z,3.45
2023-01-19T18:55:30.477Z,3.49
2023-01-19T18:57:56.799Z,3.47
2023-01-19T19:00:23.239Z,3.41
2023-01-19T19:02:49.576Z,3.37
2023-01-19T19:05:15.983Z,3.24
2023-01-19T19:07:42.311Z,3.19
2023-01-19T19:10:09.528Z,3.24
2023-01-19T19:12:35.847Z,3.23
2023-01-19T19:15:02.235Z,3.13
2023-01-19T19:17:28.576Z,3.08
2023-01-19T19:19:54.911Z,2.99
2023-01-19T19:22:21.303Z,2.98
2023-01-19T19:24:47.625Z,3.00
2023-01-19T19:27:14.310Z,3.01
2023-01-19T19:29:41.356Z,2.92
2023-01-19T19:32:07.713Z,2.95
2023-01-19T19:34:34.087Z,2.96
2023-01-19T19:37:01.371Z,2.93
2023-01-19T19:39:28.396Z,2.85
2023-01-19T19:41:54.723Z,2.81
2023-01-19T19:44:21.164Z,2.75
2023-01-19T19:46:47.721Z,2.69
2023-01-19T19:49:15.289Z,2.69
2023-01-19T19:51:41.872Z,2.62
2023-01-19T19:54:08.835Z,2.60
2023-01-19T19:56:35.201Z,2.59
2023-01-19T19:59:01.559Z,2.69
2023-01-19T20:01:32.898Z,2.84
2023-01-19T20:04:07.793Z,2.85
2023-01-19T20:06:38.611Z,2.91
2023-01-19T20:09:06.529Z,3.03
2023-01-19T20:11:33.323Z,2.87
2023-01-19T20:13:59.835Z,2.80
2023-01-19T20:16:26.410Z,2.71
2023-01-19T20:18:54.208Z,2.65
2023-01-19T20:21:26.909Z,2.58
2023-01-19T20:23:55.097Z,2.50
2023-01-19T20:26:25.108Z,2.51
2023-01-19T20:28:51.944Z,2.53
2023-01-19T20:31:21.479Z,2.49
2023-01-19T20:33:49.795Z,2.51
2023-01-19T20:36:17.012Z,2.48
2023-01-19T20:38:43.720Z,2.42
2023-01-19T20:41:11.695Z,2.44
2023-01-19T20:43:38.543Z,2.37
2023-01-19T20:46:05.560Z,2.40
2023-01-19T20:48:32.197Z,2.40
2023-01-19T20:51:04.371Z,2.34
2023-01-19T20:53:31.542Z,2.30
2023-01-19T20:55:57.979Z,2.29
2023-01-19T20:58:24.424Z,2.28
2023-01-19T21:00:50.928Z,2.17
2023-01-19T21:03:17.471Z,2.12
2023-01-19T21:05:46.571Z,2.09
2023-01-19T21:08:14.653Z,1.98
2023-01-19T21:10:41.700Z,1.98
2023-01-19T21:13:08.192Z,1.91
2023-01-19T21:15:34.745Z,1.88
2023-01-19T21:18:01.759Z,1.91
2023-01-19T21:20:32.861Z,1.88
2023-01-19T21:22:59.243Z,1.85
2023-01-19T21:25:25.564Z,1.82
2023-01-19T21:27:51.872Z,1.74
2023-01-19T21:30:18.502Z,1.79
2023-01-19T21:32:44.914Z,1.77
2023-01-19T21:35:11.517Z,1.77
2023-01-19T21:37:38.064Z,1.75
2023-01-19T21:40:05.012Z,1.74
2023-01-19T21:42:31.394Z,1.76
2023-01-19T21:44:57.780Z,1.63
2023-01-19T21:47:24.125Z,1.64
2023-01-19T21:49:50.439Z,1.62
2023-01-19T21:52:16.807Z,1.59
2023-01-19T21:54:43.335Z,1.61
2023-01-19T21:57:09.751Z,1.51
2023-01-19T21:59:36.087Z,1.51
2023-01-19T22:02:02.574Z,1.45
2023-01-19T22:04:29.694Z,1.46
2023-01-19T22:06:56.026Z,1.53
2023-01-19T22:09:22.420Z,1.44
2023-01-19T22:11:48.742Z,1.50
2023-01-19T22:14:15.077Z,1.46
2023-01-19T22:16:41.471Z,1.36
2023-01-19T22:19:12.799Z,1.37
2023-01-19T22:21:39.871Z,1.46
2023-01-19T22:24:06.721Z,1.52
2023-01-19T22:26:34.085Z,1.49
2023-01-19T22:29:01.585Z,1.47
2023-01-19T22:31:29.377Z,1.48
2023-01-19T22:33:56.627Z,1.44
2023-01-19T22:36:25.695Z,1.45
2023-01-19T22:38:54.463Z,1.33
2023-01-19T22:41:23.543Z,1.18
2023-01-19T22:43:52.625Z,1.22
2023-01-19T22:46:20.568Z,1.20
2023-01-19T22:48:48.300Z,1.02
2023-01-19T22:51:15.047Z,1.10
2023-01-19T22:53:41.394Z,1.09
2023-01-19T22:56:32.329Z,1.08
2023-01-19T22:58:59.471Z,1.05
2023-01-19T23:01:37.615Z,0.88
2023-01-19T23:04:05.324Z,0.89
2023-01-19T23:06:34.420Z,0.79
2023-01-19T23:09:04.780Z,0.93
2023-01-19T23:11:39.729Z,0.90
2023-01-19T23:14:07.911Z,0.97
2023-01-19T23:16:34.782Z,0.98
2023-01-19T23:19:01.365Z,0.94
2023-01-19T23:21:30.340Z,1.02
2023-01-19T23:24:02.108Z,0.97
2023-01-19T23:26:30.671Z,1.00
2023-01-19T23:28:59.370Z,1.00
2023-01-19T23:31:28.340Z,0.90
2023-01-19T23:33:57.326Z,0.92
2023-01-19T23:36:25.990Z,0.87
2023-01-19T23:38:54.474Z,0.75
2023-01-19T23:41:21.659Z,0.66
2023-01-19T23:43:48.503Z,0.66
2023-01-19T23:46:16.544Z,0.67
2023-01-19T23:48:43.377Z,0.65
2023-01-19T23:51:12.391Z,0.64
2023-01-19T23:53:38.809Z,0.48
2023-01-19T23:56:32.699Z,0.55
2023-01-19T23:59:11.582Z,0.53
